METAR Data
IDs: Format: Raw Decoded Include TAF

Data at: 0530 UTC 26 Sep 2018

KFRG 260523Z AUTO 21007KT 8SM OVC005 22/22 A3012 RMK AO2 T02220217
KFRG 260453Z AUTO 21008KT 8SM OVC004 22/22 A3012 RMK AO2 SLP197 T02220217 402280144
KFRG 260423Z AUTO 20008KT 7SM OVC004 22/22 A3013 RMK AO2 T02220217
KFRG 260353Z AUTO 20011KT 9SM BKN006 BKN013 OVC019 23/22 A3013 RMK AO2 CIG 004V012 SLP202 T02280217
KFRG 260341Z AUTO 19011KT 10SM FEW005 BKN012 BKN020 23/22 A3013 RMK AO2 T02280217
KFRG 260313Z AUTO 19012KT 10SM SCT005 SCT039 22/21 A3014 RMK AO2 T02170211
KFRG 260253Z AUTO 21009KT 8SM OVC005 22/22 A3015 RMK AO2 RAE10 CIG 003V008 SLP209 P0001 60010 T02220217 58008
KFRG 260201Z 21007KT 8SM RA BKN005 BKN013 OVC070 22/21 A3016 RMK AO2 P0001 T02220211
KFRG 260153Z 21010KT 10SM -RA SCT003 BKN021 OVC070 22/21 A3016 RMK AO2 RAE18B34 SLP212 P0002 T02170211
KFRG 260053Z AUTO 23007KT 6SM RA BR OVC004 22/22 A3018 RMK AO2 RAE20B39 SLP219 P0007 T02220217
KFRG 252353Z AUTO 22012G21KT 10SM -RA OVC004 22/22 A3017 RMK AO2 SLP217 P0004 60188 T02220217 10228 20217 55000
KFRG 252302Z 22012G17KT 6SM RA BR FEW004 BKN009 OVC015 22/22 A3017 RMK AO2 P0003 T02220217
KFRG 252253Z 22010KT 6SM RA BR SCT006 SCT009 OVC012 22/22 A3016 RMK AO2 SLP214 P0084 T02220217
KFRG 252251Z 22011G15KT 4SM RA BR SCT006 BKN012 OVC018 22/22 A3017 RMK AO2 P0084
KFRG 252238Z 23008KT 160V260 2SM +RA BR BKN006 OVC012 22/22 A3018 RMK AO2 P0075 T02220217
KFRG 252233Z 17005G17KT 3/4SM +RA BR BKN006 OVC012 22/22 A3016 RMK AO2 SFC VIS 1 1/2 P0073 T02220217
KFRG 252213Z 21013G23KT 1SM RA BR BKN006 OVC009 22/22 A3018 RMK AO2 SFC VIS 2 VIS 1V5 LTG DSNT NE P0042 T02220217
KFRG 252153Z 20011G22KT 3/4SM +RA BR OVC006 22/21 A3017 RMK AO2 TWR VIS 1 SLP217 P0098 T02220211
KFRG 252142Z 21010G17KT 1SM -RA BR OVC007 22/22 A3018 RMK AO2 SFC VIS 3 P0070 T02170217
KFRG 252132Z 15012G19KT 1/2SM +RA FG VV007 22/22 A3016 RMK AO2 TWR VIS 1 P0065 T02220217
KFRG 252119Z 19013KT 1SM RA BR BKN006 OVC040 22/21 A3018 RMK AO2 SFC VIS 2 1/2 VIS 1 1/2V5 P0009 T02170211
KFRG 252053Z 17017G23KT 4SM -RA BR BKN008 BKN031 OVC038 22/21 A3018 RMK AO2 PK WND 17028/1955 RAB47 SLP219 P0002 60002 T02220211 56020
KFRG 251953Z 16020G28KT 10SM BKN008 OVC034 23/21 A3019 RMK AO2 PK WND 17028/1940 SLP223 T02280211
KFRG 251853Z 16019G26KT 9SM OVC007 22/21 A3020 RMK AO2 PK WND 15026/1825 SLP227 T02220206
KFRG 251753Z 14017KT 9SM OVC008 22/20 A3024 RMK AO2 PK WND 14026/1729 SLP239 60012 T02170200 10217 20167 58027
KFRG 251708Z 13016G22KT 9SM OVC008 21/19 A3026 RMK AO2 T02110194
KFRG 251700Z 13016G22KT 10SM OVC010 21/19 A3027 RMK AO2 T02110194
KFRG 251653Z 13016KT 10SM BKN006 BKN010 OVC017 21/19 A3027 RMK AO2 PK WND 15026/1610 RAB36E45 SLP248 P0000 T02060194
KFRG 251624Z 13020G26KT 10SM BKN006 BKN010 OVC017 21/19 A3028 RMK AO2 PK WND 15026/1610 T02060189
KFRG 251553Z 13017G24KT 10SM OVC012 21/19 A3029 RMK AO2 PK WND 11027/1525 SLP258 T02060189
KFRG 251506Z 12014G25KT 10SM FEW008 BKN013 OVC019 20/18 A3031 RMK AO2 T02000183
KFRG 251459Z 13020G26KT 10SM SCT010 OVC016 19/18 A3032 RMK AO2 T01940183
KFRG 251453Z 12019G26KT 10SM BKN010 OVC015 19/18 A3032 RMK AO2 PK WND 13026/1453 RAE05 SLP266 P0000 60012 T01940183 58015
KFRG 251429Z 13016KT 3SM OVC008 19/18 A3033 RMK AO2 SFC VIS 9 RAE05 CIG 006V010 P0000 T01890183
KFRG 251353Z 12013G21KT 1 3/4SM RA BR OVC006 19/18 A3035 RMK AO2 PK WND 11026/1328 SFC VIS 3 CIG 004V009 SLP276 P0003 T01890178
KFRG 251253Z 11012G20KT 1 3/4SM -RA BR OVC005 18/17 A3035 RMK AO2 SFC VIS 4 SLP275 P0009 T01780172
KFRG 251212Z 10013KT 1 3/4SM RA BR BKN006 OVC010 17/17 A3036 RMK AO2 SFC VIS 2 1/2 P0003 T01720167
KFRG 251205Z 10013G21KT 2 1/2SM -RA BR BKN006 OVC010 17/17 A3036 RMK AO2 P0002 T01720167
KFRG 251153Z 10013G17KT 1 1/2SM +RA BR OVC006 17/16 A3036 RMK AO2 TWR VIS 1 3/4 SLP280 P0017 60027 70027 T01670161 10167 20144 56016
KFRG 251053Z 08008KT 1 3/4SM -RA BR OVC008 15/14 A3038 RMK AO2 SFC VIS 4 SLP286 P0006 T01500144
KFRG 251046Z 07008KT 1 3/4SM -RA BR OVC008 15/14 A3038 RMK AO2 SFC VIS 5 CIG 006V012 P0005 T01500144
KFRG 251025Z AUTO 07006KT 4SM -RA BR FEW006 OVC013 15/14 A3038 RMK AO2 P0004 T01500144
KFRG 250953Z AUTO 08009KT 4SM -RA BR OVC015 15/14 A3039 RMK AO2 RAE0858B21 SLP289 P0004 T01500139
KFRG 250853Z AUTO 08008G16KT 10SM -RA OVC015 15/13 A3041 RMK AO2 RAB44 SLP296 P0000 60000 T01500128 56022
KFRG 250753Z AUTO 07007KT 10SM OVC017 15/12 A3042 RMK AO2 RAE19 SLP300 P0000 T01500122
KFRG 250653Z AUTO 07008KT 10SM -RA OVC019 14/12 A3045 RMK AO2 RAE01B48 SLP311 P0000 T01440117
KFRG 250553Z AUTO 07007KT 10SM -RA OVC022 14/11 A3047 RMK AO2 RAB51 SLP318 P0000 60000 T01440111 10150 20144 58012
KFRG 250453Z AUTO 07008KT 10SM OVC025 15/11 A3049 RMK AO2 SLP323 T01500106 402060133
KFRG 250353Z AUTO 07008KT 10SM OVC028 15/11 A3051 RMK AO2 SLP329 T01500106
KFRG 250326Z AUTO 07007KT 10SM BKN029 OVC036 15/11 A3051 RMK AO2 T01500106
KFRG 250253Z AUTO 07008KT 10SM SCT029 OVC035 15/11 A3051 RMK AO2 SLP330 T01500106 53005
KFRG 250153Z 07009KT 10SM FEW029 BKN035 15/11 A3051 RMK AO2 SLP330 T01500106
KFRG 250053Z 07007KT 10SM SCT030 BKN036 15/11 A3049 RMK AO2 SLP324 T01500111
KFRG 242353Z 08009KT 10SM SCT040 15/11 A3049 RMK AO2 SLP325 T01500111 10200 20150 53008
KFRG 242253Z 06010KT 10SM SCT027 OVC035 16/12 A3049 RMK AO2 SLP323 T01560117
KFRG 242153Z 09009G20KT 10SM SCT029 BKN039 17/11 A3047 RMK AO2 SLP317 T01670111
KFRG 242053Z 10014G22KT 10SM SCT031 BKN040 18/11 A3047 RMK AO2 SLP317 T01780106 51001
KFRG 242049Z 09015G22KT 10SM BKN029 BKN040 18/12 A3047 RMK AO2
KFRG 241953Z 08012KT 10SM SCT031 BKN040 OVC047 18/12 A3047 RMK AO2 SLP318 T01830122
KFRG 241853Z 07011G17KT 10SM BKN039 BKN045 18/13 A3047 RMK AO2 SLP316 T01830128
KFRG 241753Z 11015G19KT 10SM FEW032 BKN041 BKN049 20/13 A3047 RMK AO2 SLP316 T02000128 10206 20144 56003